Time;durP1;ratioP1;P1;durP2;ratioP2;P2;SDS_P1;SDS_P2;PMS_P1;PMS_P2;Temp;Humidity;BMP_temperature;BMP_pressure;BME280_temperature;BME280_humidity;BME280_pressure;Samples;Min_cycle;Max_cycle;Signal;HPM_P1;HPM_P2
2023/03/13 00:01:48;;;;;;;15.40;3.60;;;;;;;4.61;78.37;99606.23;108530;1269;25201;-79
2023/03/13 00:04:18;;;;;;;13.10;3.30;;;;;;;4.63;78.54;99607.81;108597;1273;25233;-80
2023/03/13 00:06:49;;;;;;;13.10;3.00;;;;;;;4.64;78.60;99615.19;108999;1273;22644;-79
2023/03/13 00:09:21;;;;;;;10.20;3.30;;;;;;;4.65;78.81;99620.52;108829;1270;22563;-80
2023/03/13 00:11:52;;;;;;;12.40;2.90;;;;;;;4.69;78.80;99627.41;108818;1275;22496;-80
2023/03/13 00:14:23;;;;;;;11.60;2.50;;;;;;;4.70;78.97;99622.13;108511;1270;22648;-80
2023/03/13 00:16:53;;;;;;;8.10;2.00;;;;;;;4.73;79.05;99620.70;108472;1273;23897;-80
2023/03/13 00:19:25;;;;;;;9.80;2.20;;;;;;;4.74;79.33;99619.14;108842;1275;22565;-80
2023/03/13 00:21:55;;;;;;;9.90;2.30;;;;;;;4.76;79.39;99616.67;108545;1270;22752;-80
2023/03/13 00:24:26;;;;;;;9.60;2.20;;;;;;;4.78;79.45;99620.24;108612;1264;22604;-80
2023/03/13 00:27:02;;;;;;;11.40;2.20;;;;;;;4.80;79.54;99623.80;108534;1275;22514;-80
2023/03/13 00:29:35;;;;;;;7.10;1.60;;;;;;;4.81;79.73;99622.64;108710;1275;22518;-80
2023/03/13 00:32:06;;;;;;;6.90;1.50;;;;;;;4.83;79.66;99620.77;108537;1272;22646;-79
2023/03/13 00:34:37;;;;;;;9.70;1.90;;;;;;;4.84;79.73;99618.41;108492;1269;22721;-79
2023/03/13 00:37:08;;;;;;;6.10;2.00;;;;;;;4.86;79.73;99616.29;108526;1269;23287;-80
2023/03/13 00:39:38;;;;;;;11.20;1.90;;;;;;;4.89;79.75;99616.44;108926;1269;22551;-80
2023/03/13 00:42:09;;;;;;;8.70;2.20;;;;;;;4.91;79.91;99614.84;108812;1275;22733;-80
2023/03/13 00:44:40;;;;;;;13.90;4.20;;;;;;;4.92;79.96;99613.03;108815;1275;23013;-80
2023/03/13 00:47:11;;;;;;;13.10;5.10;;;;;;;4.95;79.93;99613.34;108806;1270;22511;-80
2023/03/13 00:49:41;;;;;;;10.80;3.10;;;;;;;4.97;80.10;99614.20;108832;1269;26905;-79
2023/03/13 00:52:12;;;;;;;8.60;1.80;;;;;;;4.98;80.22;99616.46;108826;1264;22692;-80
2023/03/13 00:54:43;;;;;;;7.00;1.60;;;;;;;4.98;80.26;99616.55;108574;1269;22583;-79
2023/03/13 00:57:14;;;;;;;7.60;2.00;;;;;;;4.98;80.25;99617.10;108539;1271;22599;-80
2023/03/13 00:59:44;;;;;;;7.50;1.80;;;;;;;4.98;80.37;99622.86;108886;1272;23300;-80
2023/03/13 01:02:15;;;;;;;8.10;1.80;;;;;;;4.99;80.25;99618.30;108787;1272;22651;-79
2023/03/13 01:04:46;;;;;;;9.60;1.40;;;;;;;5.00;80.30;99622.68;108743;1272;22537;-80
2023/03/13 01:07:16;;;;;;;8.90;1.60;;;;;;;5.02;80.53;99618.84;108593;1269;22510;-79
2023/03/13 01:09:48;;;;;;;7.90;1.80;;;;;;;5.02;80.47;99620.02;108596;1269;22662;-80
2023/03/13 01:12:18;;;;;;;6.70;1.60;;;;;;;5.03;80.49;99621.24;108488;1275;22559;-80
2023/03/13 01:14:51;;;;;;;9.80;2.10;;;;;;;5.05;80.49;99617.48;108808;1275;22451;-80
2023/03/13 01:17:21;;;;;;;6.60;1.80;;;;;;;5.06;80.61;99616.45;108764;1269;22571;-80
2023/03/13 01:19:55;;;;;;;9.00;1.90;;;;;;;5.07;80.54;99615.84;108500;1275;22535;-80
2023/03/13 01:22:26;;;;;;;5.30;1.30;;;;;;;5.08;80.62;99615.32;108731;1275;22546;-79
2023/03/13 01:24:57;;;;;;;8.50;1.90;;;;;;;5.09;80.75;99617.20;108755;1269;22520;-80
2023/03/13 01:27:28;;;;;;;9.40;2.30;;;;;;;5.09;80.76;99616.35;108807;1269;24214;-80
2023/03/13 01:29:59;;;;;;;8.20;1.90;;;;;;;5.10;80.88;99618.83;108629;1275;25926;-80
2023/03/13 01:32:32;;;;;;;8.10;1.90;;;;;;;5.10;80.87;99618.89;108773;1272;22588;-80
2023/03/13 01:35:03;;;;;;;6.40;2.00;;;;;;;5.11;81.08;99619.27;108737;1270;22479;-80
2023/03/13 01:37:35;;;;;;;8.60;1.80;;;;;;;5.11;81.11;99620.29;108743;1268;22620;-80
2023/03/13 01:40:06;;;;;;;7.40;1.80;;;;;;;5.12;81.19;99617.95;108745;1272;22540;-80
2023/03/13 01:42:52;;;;;;;9.80;2.50;;;;;;;5.13;81.10;99616.88;108423;1268;23007;-79
2023/03/13 01:45:56;;;;;;;8.10;1.80;;;;;;;5.14;81.29;99605.60;108478;1269;23239;-79
2023/03/13 01:48:32;;;;;;;7.00;2.00;;;;;;;5.14;81.34;99609.09;108143;1275;25233;-79
2023/03/13 01:51:07;;;;;;;9.70;2.20;;;;;;;5.14;81.36;99609.64;108064;1269;22548;-79
2023/03/13 01:53:42;;;;;;;7.70;2.10;;;;;;;5.13;81.53;99612.26;108164;1270;22664;-80
2023/03/13 01:56:17;;;;;;;6.30;1.70;;;;;;;5.13;81.61;99611.88;108428;1269;23268;-79
2023/03/13 01:58:50;;;;;;;9.70;2.20;;;;;;;5.13;81.82;99615.86;108051;1272;22669;-79
2023/03/13 02:01:24;;;;;;;9.10;2.40;;;;;;;5.13;81.94;99619.09;108316;1272;22546;-79
2023/03/13 02:03:56;;;;;;;11.10;2.50;;;;;;;5.13;82.15;99625.48;108001;1273;22537;-79
2023/03/13 02:06:31;;;;;;;6.60;2.20;;;;;;;5.13;82.59;99630.46;108071;1270;22985;-79
2023/03/13 02:09:08;;;;;;;10.50;2.30;;;;;;;5.13;82.60;99626.59;108116;1269;24349;-79
2023/03/13 02:11:48;;;;;;;9.30;2.50;;;;;;;5.13;82.96;99627.44;108072;1275;22484;-80
2023/03/13 02:14:21;;;;;;;10.40;2.30;;;;;;;5.13;83.20;99632.52;108185;1269;22476;-80
2023/03/13 02:16:52;;;;;;;10.60;2.20;;;;;;;5.12;83.47;99634.36;109178;1272;22575;-80
2023/03/13 02:19:34;;;;;;;8.90;2.00;;;;;;;5.11;83.66;99640.66;109449;1272;22577;-80
2023/03/13 02:22:19;;;;;;;11.30;2.40;;;;;;;5.10;83.66;99644.04;108957;1269;24241;-80
2023/03/13 02:25:01;;;;;;;7.40;1.70;;;;;;;5.09;84.13;99653.97;108407;1269;22514;-80
2023/03/13 02:27:32;;;;;;;9.10;2.70;;;;;;;5.07;84.57;99656.48;108954;1275;25421;-80
2023/03/13 02:30:04;;;;;;;12.00;2.90;;;;;;;5.06;84.91;99655.39;108535;1275;25244;-80
2023/03/13 02:32:36;;;;;;;13.60;2.70;;;;;;;5.05;85.56;99659.23;107909;1264;24222;-78
2023/03/13 02:35:11;;;;;;;12.10;3.30;;;;;;;5.04;86.03;99655.24;107902;1269;22754;-79
2023/03/13 02:37:43;;;;;;;9.00;2.30;;;;;;;5.04;86.21;99657.30;108000;1273;22613;-79
2023/03/13 02:40:18;;;;;;;10.70;2.70;;;;;;;5.05;86.26;99652.70;108060;1275;24220;-79
2023/03/13 02:42:50;;;;;;;11.10;3.00;;;;;;;5.06;86.44;99649.32;108272;1275;25287;-78
2023/03/13 02:45:21;;;;;;;12.30;3.40;;;;;;;5.08;86.61;99645.05;108233;1275;22467;-79
2023/03/13 02:47:52;;;;;;;10.90;2.90;;;;;;;5.10;86.61;99645.52;108194;1275;22523;-79
2023/03/13 02:50:23;;;;;;;18.60;4.00;;;;;;;5.10;86.88;99641.95;108338;1275;22526;-79
2023/03/13 02:52:59;;;;;;;12.50;3.80;;;;;;;5.10;86.98;99636.60;108443;1275;24215;-79
2023/03/13 02:55:35;;;;;;;12.50;4.90;;;;;;;5.10;87.13;99639.28;108420;1268;24364;-80
2023/03/13 02:58:06;;;;;;;16.80;4.30;;;;;;;5.12;87.35;99638.81;108326;1271;26515;-80
2023/03/13 03:00:37;;;;;;;13.10;4.00;;;;;;;5.13;87.20;99641.36;108554;1269;22569;-80
2023/03/13 03:03:08;;;;;;;15.90;4.70;;;;;;;5.15;87.32;99638.77;108509;1268;22511;-81
2023/03/13 03:05:39;;;;;;;17.30;4.40;;;;;;;5.17;87.57;99632.69;108456;1275;25329;-81
2023/03/13 03:08:10;;;;;;;18.30;5.00;;;;;;;5.18;87.80;99628.45;108521;1272;22549;-81
2023/03/13 03:10:41;;;;;;;18.10;6.20;;;;;;;5.18;87.82;99627.31;108546;1269;24302;-81
2023/03/13 03:13:12;;;;;;;17.40;6.00;;;;;;;5.19;87.91;99623.02;108498;1264;23136;-81
2023/03/13 03:15:43;;;;;;;16.30;5.50;;;;;;;5.20;87.85;99620.29;108534;1269;22819;-81
2023/03/13 03:18:14;;;;;;;18.00;6.30;;;;;;;5.22;87.96;99619.83;108187;1269;22799;-81
2023/03/13 03:20:44;;;;;;;15.50;5.30;;;;;;;5.23;88.15;99618.69;108761;1275;22570;-81
2023/03/13 03:23:15;;;;;;;18.50;6.10;;;;;;;5.24;88.02;99619.26;108801;1271;22563;-80
2023/03/13 03:25:46;;;;;;;14.90;5.60;;;;;;;5.26;88.28;99616.33;108668;1269;23336;-79
2023/03/13 03:28:17;;;;;;;14.70;4.60;;;;;;;5.26;88.39;99610.63;108719;1272;22531;-81
2023/03/13 03:30:47;;;;;;;15.60;6.20;;;;;;;5.26;88.56;99612.84;108656;1270;22528;-81
2023/03/13 03:33:18;;;;;;;14.80;6.00;;;;;;;5.26;88.37;99613.15;108769;1269;22563;-81
2023/03/13 03:35:49;;;;;;;14.10;5.20;;;;;;;5.27;88.52;99613.73;108727;1275;24276;-80
2023/03/13 03:38:20;;;;;;;18.20;5.90;;;;;;;5.29;88.40;99610.36;108778;1269;22537;-80
2023/03/13 03:40:51;;;;;;;16.70;6.60;;;;;;;5.29;88.75;99605.68;108709;1269;22462;-80
2023/03/13 03:43:22;;;;;;;20.40;7.50;;;;;;;5.29;88.76;99601.91;108778;1269;22590;-81
2023/03/13 03:45:52;;;;;;;20.30;7.00;;;;;;;5.31;88.79;99603.02;108767;1275;22550;-80
2023/03/13 03:48:24;;;;;;;19.40;7.10;;;;;;;5.32;88.77;99607.31;108740;1275;24153;-80
2023/03/13 03:50:54;;;;;;;16.80;6.50;;;;;;;5.33;88.71;99605.94;108757;1275;22644;-80
2023/03/13 03:53:27;;;;;;;19.10;7.10;;;;;;;5.34;88.87;99606.44;108812;1268;22531;-80
2023/03/13 03:55:57;;;;;;;19.60;7.70;;;;;;;5.35;88.96;99609.00;108722;1272;22530;-81
2023/03/13 03:58:28;;;;;;;17.00;6.80;;;;;;;5.37;88.74;99601.89;108726;1275;22461;-81
2023/03/13 04:00:59;;;;;;;22.90;8.20;;;;;;;5.38;88.85;99598.60;108744;1272;22940;-80
2023/03/13 04:03:30;;;;;;;22.20;8.80;;;;;;;5.39;88.90;99602.11;108840;1269;25397;-80
2023/03/13 04:06:01;;;;;;;21.80;6.80;;;;;;;5.41;89.17;99597.34;108692;1269;22550;-80
2023/03/13 04:08:32;;;;;;;21.00;8.00;;;;;;;5.42;89.12;99593.04;108615;1275;24185;-80
2023/03/13 04:11:03;;;;;;;19.70;7.50;;;;;;;5.44;89.23;99591.77;108650;1269;22545;-80
2023/03/13 04:13:34;;;;;;;21.50;7.50;;;;;;;5.45;89.22;99591.07;108649;1275;23056;-80
2023/03/13 04:16:10;;;;;;;23.30;9.00;;;;;;;5.47;89.47;99587.38;108571;1270;22524;-80
2023/03/13 04:18:40;;;;;;;25.20;8.40;;;;;;;5.47;89.49;99586.39;108697;1268;22616;-80
2023/03/13 04:21:11;;;;;;;22.90;8.00;;;;;;;5.49;89.58;99584.11;108719;1269;22920;-80
2023/03/13 04:23:42;;;;;;;23.20;9.00;;;;;;;5.50;89.72;99577.45;108765;1272;25505;-80
2023/03/13 04:26:12;;;;;;;24.20;8.30;;;;;;;5.50;89.85;99576.16;108685;1269;22520;-79
2023/03/13 04:28:43;;;;;;;27.60;9.00;;;;;;;5.51;90.00;99569.64;108722;1275;22727;-80
2023/03/13 04:31:14;;;;;;;23.30;9.50;;;;;;;5.52;90.04;99561.67;108877;1275;22575;-80
2023/03/13 04:33:45;;;;;;;28.80;11.00;;;;;;;5.54;90.18;99558.05;108828;1272;22618;-80
2023/03/13 04:36:16;;;;;;;28.90;10.00;;;;;;;5.57;90.21;99555.30;108707;1259;25447;-82
2023/03/13 04:38:47;;;;;;;25.60;10.00;;;;;;;5.59;90.37;99546.77;108365;1272;22537;-80
2023/03/13 04:41:18;;;;;;;28.00;11.00;;;;;;;5.62;90.45;99539.48;108641;1268;22575;-79
2023/03/13 04:43:48;;;;;;;22.80;9.60;;;;;;;5.65;90.58;99533.52;108682;1267;22539;-81
2023/03/13 04:46:19;;;;;;;23.60;9.80;;;;;;;5.67;90.37;99532.47;108478;1264;22556;-79
2023/03/13 04:48:50;;;;;;;23.30;8.90;;;;;;;5.68;90.47;99529.02;108521;1272;24185;-79
2023/03/13 04:51:21;;;;;;;24.10;9.60;;;;;;;5.69;90.44;99533.17;108419;1267;24269;-79
2023/03/13 04:53:52;;;;;;;26.00;9.90;;;;;;;5.69;90.51;99532.12;108401;1275;22673;-80
2023/03/13 04:56:26;;;;;;;23.90;9.50;;;;;;;5.70;90.42;99533.02;108224;1269;22479;-79
2023/03/13 04:58:57;;;;;;;25.50;9.50;;;;;;;5.71;90.36;99528.63;108155;1275;22479;-80
2023/03/13 05:01:28;;;;;;;22.80;9.20;;;;;;;5.72;90.37;99530.19;107965;1267;22757;-81
2023/03/13 05:03:59;;;;;;;25.20;9.40;;;;;;;5.72;90.27;99525.89;108188;1268;22520;-83
2023/03/13 05:06:30;;;;;;;24.70;9.20;;;;;;;5.74;90.55;99522.50;108280;1268;22518;-83
2023/03/13 05:09:02;;;;;;;27.40;10.20;;;;;;;5.76;90.53;99522.04;108284;1268;24199;-82
2023/03/13 05:11:34;;;;;;;22.90;7.60;;;;;;;5.77;90.62;99521.96;108328;1269;22705;-82
2023/03/13 05:14:07;;;;;;;24.40;8.50;;;;;;;5.79;90.43;99525.08;108334;1272;22840;-83
2023/03/13 05:16:38;;;;;;;23.60;8.30;;;;;;;5.81;90.46;99520.24;108361;1260;24223;-83
2023/03/13 05:19:09;;;;;;;25.10;9.60;;;;;;;5.81;90.65;99514.27;108529;1269;22530;-83
2023/03/13 05:21:40;;;;;;;22.90;7.80;;;;;;;5.83;90.73;99517.05;108315;1272;22660;-82
2023/03/13 05:24:11;;;;;;;28.20;8.30;;;;;;;5.84;90.74;99516.94;108394;1275;22540;-82
2023/03/13 05:26:42;;;;;;;20.90;7.20;;;;;;;5.85;90.85;99516.05;108256;1269;22518;-81
2023/03/13 05:29:13;;;;;;;21.70;9.10;;;;;;;5.85;90.75;99514.20;108309;1263;22615;-80
2023/03/13 05:31:43;;;;;;;22.60;8.40;;;;;;;5.86;90.88;99514.08;108350;1269;22495;-81
2023/03/13 05:34:14;;;;;;;27.70;10.10;;;;;;;5.87;90.87;99510.71;108354;1269;22542;-78
2023/03/13 05:36:45;;;;;;;25.60;10.40;;;;;;;5.88;91.00;99512.50;108501;1264;22544;-79
2023/03/13 05:39:15;;;;;;;28.10;10.70;;;;;;;5.89;91.14;99509.85;108341;1268;25345;-78
2023/03/13 05:41:47;;;;;;;24.80;10.00;;;;;;;5.91;91.23;99507.92;108332;1275;24334;-78
2023/03/13 05:44:17;;;;;;;26.90;10.70;;;;;;;5.94;91.33;99511.66;108126;1272;22768;-78
2023/03/13 05:46:48;;;;;;;25.10;10.10;;;;;;;5.99;91.48;99506.45;108202;1269;25308;-78
2023/03/13 05:49:19;;;;;;;32.10;12.50;;;;;;;6.02;91.37;99499.88;107907;1269;22562;-78
2023/03/13 05:51:50;;;;;;;28.90;10.20;;;;;;;6.05;91.45;99498.30;107929;1275;25739;-78
2023/03/13 05:54:21;;;;;;;33.30;11.00;;;;;;;6.09;91.64;99497.10;107949;1274;22804;-78
2023/03/13 05:56:51;;;;;;;28.60;11.30;;;;;;;6.13;91.61;99501.36;107891;1275;22554;-78
2023/03/13 05:59:22;;;;;;;28.00;12.00;;;;;;;6.16;91.49;99494.79;107919;1269;22488;-79
2023/03/13 06:01:53;;;;;;;33.40;12.20;;;;;;;6.19;91.45;99496.23;107911;1272;22467;-78
2023/03/13 06:04:24;;;;;;;28.80;10.60;;;;;;;6.22;91.38;99493.41;107891;1275;23338;-79
2023/03/13 06:06:55;;;;;;;27.30;11.20;;;;;;;6.26;91.56;99497.83;108234;1269;24283;-78
2023/03/13 06:09:26;;;;;;;26.70;10.80;;;;;;;6.28;91.38;99493.83;108068;1263;22669;-79
2023/03/13 06:11:57;;;;;;;24.80;10.80;;;;;;;6.31;91.54;99489.10;108967;1275;22568;-79
2023/03/13 06:14:27;;;;;;;28.20;10.20;;;;;;;6.34;91.37;99489.02;108637;1269;22524;-79
2023/03/13 06:16:59;;;;;;;30.70;11.40;;;;;;;6.37;91.43;99492.67;108460;1269;22485;-81
2023/03/13 06:19:30;;;;;;;24.00;9.00;;;;;;;6.41;91.41;99486.15;108443;1274;22525;-85
2023/03/13 06:22:01;;;;;;;27.40;11.00;;;;;;;6.45;91.42;99484.20;108409;1269;22677;-84
2023/03/13 06:24:32;;;;;;;24.80;10.90;;;;;;;6.50;91.37;99481.92;108594;1267;22604;-84
2023/03/13 06:27:03;;;;;;;28.80;10.70;;;;;;;6.53;91.28;99479.64;108379;1275;22531;-84
2023/03/13 06:29:34;;;;;;;21.20;9.10;;;;;;;6.57;91.26;99476.35;108506;1269;22520;-84
2023/03/13 06:32:06;;;;;;;26.10;9.10;;;;;;;6.62;91.40;99474.93;108519;1272;22737;-85
2023/03/13 06:34:37;;;;;;;28.60;10.60;;;;;;;6.65;91.30;99469.46;108468;1275;22520;-85
2023/03/13 06:37:08;;;;;;;27.00;9.50;;;;;;;6.69;91.48;99470.46;108354;1267;22455;-85
2023/03/13 06:39:39;;;;;;;22.30;9.70;;;;;;;6.73;91.30;99469.14;108392;1269;22831;-85
2023/03/13 06:42:11;;;;;;;23.00;9.40;;;;;;;6.78;91.20;99465.50;108458;1275;22591;-85
2023/03/13 06:44:42;;;;;;;31.40;10.50;;;;;;;6.82;91.22;99463.72;108338;1269;22560;-85
2023/03/13 06:47:13;;;;;;;25.20;9.60;;;;;;;6.85;91.27;99455.63;108465;1267;22475;-85
2023/03/13 06:49:44;;;;;;;25.10;9.50;;;;;;;6.90;91.21;99460.36;108374;1273;22582;-85
2023/03/13 06:52:15;;;;;;;27.50;11.60;;;;;;;6.94;91.19;99458.33;108328;1272;22544;-85
2023/03/13 06:54:46;;;;;;;22.90;10.90;;;;;;;6.99;91.25;99458.17;108402;1275;22570;-85
2023/03/13 06:57:17;;;;;;;17.30;7.10;;;;;;;7.04;91.32;99452.29;108288;1275;24260;-85
2023/03/13 06:59:48;;;;;;;22.90;7.50;;;;;;;7.08;91.30;99457.54;108266;1275;22529;-86
2023/03/13 07:02:19;;;;;;;23.40;7.60;;;;;;;7.15;91.26;99455.77;108321;1275;22546;-84
2023/03/13 07:04:50;;;;;;;21.70;7.60;;;;;;;7.20;91.20;99453.02;108264;1275;22525;-85
2023/03/13 07:07:22;;;;;;;22.20;8.00;;;;;;;7.28;91.09;99452.23;108364;1275;23282;-83
2023/03/13 07:09:54;;;;;;;22.30;9.70;;;;;;;7.35;91.10;99456.94;108288;1269;24263;-84
2023/03/13 07:12:34;;;;;;;24.70;9.80;;;;;;;7.42;91.09;99451.80;108372;1269;22490;-84
2023/03/13 07:15:06;;;;;;;20.10;8.10;;;;;;;7.50;90.89;99439.53;108375;1275;22520;-83
2023/03/13 07:20:28;;;;;;;18.50;7.30;;;;;;;7.67;90.82;99432.27;108262;1272;25584;-84
2023/03/13 07:22:59;;;;;;;27.20;9.00;;;;;;;7.76;90.57;99419.34;104300;1268;22514;-84
2023/03/13 07:25:30;;;;;;;23.30;7.90;;;;;;;7.83;90.54;99416.23;108290;1272;22638;-84
2023/03/13 07:28:01;;;;;;;25.60;7.70;;;;;;;7.92;90.45;99416.08;108440;1267;22516;-84
2023/03/13 07:30:33;;;;;;;25.70;9.50;;;;;;;8.02;90.26;99408.70;108518;1275;25911;-84
2023/03/13 07:33:05;;;;;;;28.20;10.70;;;;;;;8.10;90.22;99409.28;108436;1275;22528;-83
2023/03/13 07:35:36;;;;;;;19.10;5.90;;;;;;;8.16;89.87;99406.52;108448;1269;24002;-83
2023/03/13 07:38:07;;;;;;;22.60;7.40;;;;;;;8.24;89.78;99406.13;108472;1269;22526;-84
2023/03/13 07:40:38;;;;;;;20.20;5.00;;;;;;;8.31;89.53;99401.64;108529;1268;22919;-85
2023/03/13 07:43:09;;;;;;;15.60;5.20;;;;;;;8.39;89.14;99399.43;108319;1268;25425;-84
2023/03/13 07:45:51;;;;;;;16.20;4.50;;;;;;;8.47;89.25;99399.65;108410;1267;22536;-84
2023/03/13 07:48:26;;;;;;;20.70;4.60;;;;;;;8.58;89.24;99397.92;108466;1269;24256;-85
2023/03/13 07:50:57;;;;;;;17.40;3.90;;;;;;;8.68;89.05;99384.27;108349;1275;22510;-84
2023/03/13 07:53:29;;;;;;;10.70;3.00;;;;;;;8.79;88.76;99373.66;108402;1269;25425;-84
2023/03/13 07:56:01;;;;;;;15.10;3.20;;;;;;;8.92;89.00;99368.65;108360;1272;25331;-84
2023/03/13 07:58:34;;;;;;;18.10;3.90;;;;;;;9.06;88.91;99370.64;108321;1275;24863;-85
2023/03/13 08:01:15;;;;;;;11.70;2.70;;;;;;;9.19;88.45;99377.80;108456;1275;22511;-85
2023/03/13 08:03:55;;;;;;;18.00;2.60;;;;;;;9.26;87.75;99376.21;108424;1269;22522;-84
2023/03/13 08:06:29;;;;;;;11.20;2.50;;;;;;;9.32;87.31;99375.81;108497;1268;22541;-84
2023/03/13 08:09:01;;;;;;;18.90;2.80;;;;;;;9.35;87.17;99384.20;108470;1272;22552;-84
2023/03/13 08:11:34;;;;;;;16.70;3.10;;;;;;;9.37;87.25;99382.50;108361;1275;25424;-85
2023/03/13 08:14:06;;;;;;;12.30;3.20;;;;;;;9.39;87.07;99377.98;108471;1272;22567;-85
2023/03/13 08:16:37;;;;;;;14.40;2.40;;;;;;;9.41;86.57;99377.29;108326;1272;26607;-84
2023/03/13 08:19:08;;;;;;;7.60;1.90;;;;;;;9.44;86.64;99376.64;108422;1272;22653;-84
2023/03/13 08:21:45;;;;;;;16.70;2.70;;;;;;;9.47;86.51;99376.63;108531;1268;22570;-84
2023/03/13 08:24:17;;;;;;;15.50;2.00;;;;;;;9.51;86.41;99367.03;108445;1275;24214;-85
2023/03/13 08:26:48;;;;;;;11.50;2.00;;;;;;;9.54;86.05;99364.08;108456;1275;22637;-85
2023/03/13 08:29:19;;;;;;;14.30;2.20;;;;;;;9.58;86.30;99356.66;108372;1269;22521;-85
2023/03/13 08:32:10;;;;;;;14.80;2.60;;;;;;;9.62;86.02;99349.71;108308;1272;22525;-84
2023/03/13 08:34:45;;;;;;;20.70;2.70;;;;;;;9.66;86.19;99345.54;108492;1268;25424;-84
2023/03/13 08:37:29;;;;;;;;;;;;;;;;;;;;;
2023/03/13 08:40:09;;;;;;;12.70;1.60;;;;;;;9.75;85.93;99340.59;108225;1275;22479;-84
2023/03/13 08:42:41;;;;;;;12.20;2.10;;;;;;;9.81;85.58;99347.17;108478;1275;22527;-84
2023/03/13 08:45:13;;;;;;;15.10;2.00;;;;;;;9.87;85.58;99348.27;108529;1269;23126;-85
2023/03/13 08:47:43;;;;;;;16.10;2.00;;;;;;;9.93;85.38;99351.98;108583;1275;22546;-85
2023/03/13 08:50:15;;;;;;;12.00;2.50;;;;;;;9.97;85.14;99350.09;108483;1272;22555;-84
2023/03/13 08:52:47;;;;;;;11.90;1.60;;;;;;;10.01;85.04;99349.65;108467;1269;22743;-85
2023/03/13 08:55:18;;;;;;;15.00;2.50;;;;;;;10.05;85.08;99338.83;108511;1275;22646;-84
2023/03/13 08:57:49;;;;;;;14.40;2.30;;;;;;;10.10;84.97;99334.45;108402;1267;22569;-84
2023/03/13 09:00:22;;;;;;;11.90;1.90;;;;;;;10.14;85.05;99322.69;108508;1269;23921;-85
2023/03/13 09:02:53;;;;;;;15.90;1.70;;;;;;;10.19;84.43;99315.05;108528;1275;25262;-85
2023/03/13 09:05:24;;;;;;;13.60;1.80;;;;;;;10.24;84.39;99316.10;108476;1275;22514;-85
2023/03/13 09:07:56;;;;;;;13.30;2.10;;;;;;;10.30;84.19;99307.81;108404;1268;22552;-85
2023/03/13 09:10:28;;;;;;;13.00;1.50;;;;;;;10.36;83.98;99313.52;108515;1269;22588;-85
2023/03/13 09:12:59;;;;;;;12.30;1.30;;;;;;;10.41;83.51;99316.59;108470;1275;22535;-84
2023/03/13 09:15:30;;;;;;;11.20;1.30;;;;;;;10.46;83.34;99313.77;108473;1264;24353;-84
2023/03/13 09:18:00;;;;;;;12.90;2.00;;;;;;;10.51;83.41;99309.89;108270;1264;23018;-84
2023/03/13 09:20:32;;;;;;;14.40;2.10;;;;;;;10.54;83.30;99302.39;108407;1268;22507;-84
2023/03/13 09:23:03;;;;;;;18.60;2.00;;;;;;;10.57;82.86;99295.81;108383;1268;22530;-86
2023/03/13 09:25:38;;;;;;;12.90;1.40;;;;;;;10.60;82.89;99290.84;108372;1272;22640;-84
2023/03/13 09:28:09;;;;;;;15.50;1.80;;;;;;;10.64;82.53;99282.54;108493;1269;22462;-84
2023/03/13 09:30:41;;;;;;;14.40;2.00;;;;;;;10.67;82.30;99283.11;108295;1269;24213;-84
2023/03/13 09:33:12;;;;;;;14.20;1.60;;;;;;;10.70;82.05;99277.89;108381;1269;23259;-84
2023/03/13 09:36:05;;;;;;;14.10;2.30;;;;;;;10.73;81.71;99269.42;108443;1275;22508;-84
2023/03/13 09:38:38;;;;;;;11.10;1.60;;;;;;;10.75;81.64;99264.30;108474;1275;22649;-85
2023/03/13 09:41:23;;;;;;;10.30;1.50;;;;;;;10.78;81.90;99266.80;108479;1272;22486;-85
2023/03/13 09:44:00;;;;;;;11.50;1.70;;;;;;;10.82;81.90;99263.61;108326;1272;24254;-84
2023/03/13 09:46:40;;;;;;;9.90;1.40;;;;;;;10.83;81.34;99253.91;108467;1273;22535;-84
2023/03/13 09:49:29;;;;;;;11.70;1.70;;;;;;;10.85;81.26;99245.34;108444;1269;22659;-84
2023/03/13 09:52:15;;;;;;;10.50;1.90;;;;;;;10.88;81.05;99234.27;108544;1272;22956;-85
2023/03/13 09:54:53;;;;;;;16.40;3.00;;;;;;;10.92;81.39;99228.20;108477;1275;24290;-85
2023/03/13 09:57:32;;;;;;;19.60;1.80;;;;;;;10.96;80.61;99223.84;108635;1275;22530;-84
2023/03/13 10:00:14;;;;;;;18.90;2.80;;;;;;;10.98;80.49;99214.79;108557;1275;22498;-85
2023/03/13 10:02:54;;;;;;;11.40;1.50;;;;;;;11.00;80.02;99209.00;108602;1275;23800;-84
2023/03/13 10:05:32;;;;;;;12.30;2.20;;;;;;;11.03;79.22;99197.02;109542;1274;22538;-85
2023/03/13 10:08:15;;;;;;;8.90;1.30;;;;;;;11.05;79.36;99185.75;109781;1275;25301;-85
2023/03/13 10:10:52;;;;;;;13.80;1.30;;;;;;;11.07;79.12;99185.65;109014;1272;25284;-85
2023/03/13 10:13:28;;;;;;;15.10;1.50;;;;;;;11.11;79.30;99183.92;108482;1275;22524;-85
2023/03/13 10:16:02;;;;;;;7.30;0.90;;;;;;;11.16;78.52;99188.40;108444;1275;22628;-84
2023/03/13 10:18:34;;;;;;;12.30;1.30;;;;;;;11.18;78.22;99180.41;108523;1275;22656;-86
2023/03/13 10:21:16;;;;;;;11.10;1.70;;;;;;;11.19;78.45;99181.44;108554;1275;24176;-84
2023/03/13 10:23:53;;;;;;;10.10;1.40;;;;;;;11.20;78.33;99177.48;108456;1275;23787;-83
2023/03/13 10:26:28;;;;;;;13.20;1.30;;;;;;;11.18;78.84;99169.30;108518;1268;22541;-85
2023/03/13 10:29:18;;;;;;;13.70;1.80;;;;;;;11.13;79.49;99166.15;108520;1275;24180;-85
2023/03/13 10:31:56;;;;;;;14.00;1.90;;;;;;;11.05;79.77;99157.77;108516;1269;22693;-85
2023/03/13 10:34:29;;;;;;;12.00;1.30;;;;;;;10.96;80.06;99159.30;108484;1269;22660;-84
2023/03/13 10:37:05;;;;;;;9.40;1.40;;;;;;;10.89;80.13;99155.03;108534;1269;22562;-84
2023/03/13 10:39:46;;;;;;;14.50;1.30;;;;;;;10.84;80.33;99146.56;108545;1270;22536;-85
2023/03/13 10:42:28;;;;;;;10.70;1.50;;;;;;;10.80;80.78;99145.73;108461;1275;23271;-84
2023/03/13 10:45:03;;;;;;;10.80;1.30;;;;;;;10.76;80.90;99142.34;108529;1268;22520;-83
2023/03/13 10:47:42;;;;;;;14.50;1.40;;;;;;;10.74;81.36;99140.30;108573;1272;22518;-84
2023/03/13 10:50:20;;;;;;;9.50;1.50;;;;;;;10.71;81.41;99135.98;108574;1269;22517;-84
2023/03/13 10:52:53;;;;;;;13.00;1.60;;;;;;;10.69;81.61;99137.52;108550;1275;22470;-84
2023/03/13 10:55:27;;;;;;;12.10;1.90;;;;;;;10.69;81.42;99134.52;108525;1272;22529;-84
2023/03/13 10:58:00;;;;;;;15.70;1.50;;;;;;;10.69;81.79;99133.80;108500;1272;22566;-84
2023/03/13 11:00:39;;;;;;;15.30;1.70;;;;;;;10.67;82.11;99133.05;108488;1269;22532;-84
2023/03/13 11:03:17;;;;;;;11.80;1.50;;;;;;;10.68;82.32;99135.08;108643;1268;22597;-84
2023/03/13 11:05:57;;;;;;;8.70;1.30;;;;;;;10.66;82.25;99136.84;108690;1275;22524;-84
2023/03/13 11:08:34;;;;;;;13.50;1.50;;;;;;;10.64;82.24;99141.05;108762;1269;22548;-84
2023/03/13 11:11:17;;;;;;;15.90;1.90;;;;;;;10.63;82.64;99143.44;108719;1275;22591;-84
2023/03/13 11:13:49;;;;;;;11.90;1.40;;;;;;;10.64;82.74;99147.65;108822;1269;25428;-85
2023/03/13 11:16:23;;;;;;;12.60;1.50;;;;;;;10.64;82.87;99143.04;108855;1275;24471;-85
2023/03/13 11:19:22;;;;;;;11.10;2.50;;;;;;;10.66;83.30;99148.66;108788;1269;22553;-84
2023/03/13 11:22:06;;;;;;;11.30;1.70;;;;;;;10.66;83.00;99149.13;108711;1272;22529;-85
2023/03/13 11:24:47;;;;;;;16.10;1.70;;;;;;;10.67;82.91;99145.32;108644;1272;22492;-85
2023/03/13 11:27:28;;;;;;;17.10;2.10;;;;;;;10.68;83.10;99145.58;108731;1269;22549;-85
2023/03/13 11:30:11;;;;;;;10.50;1.50;;;;;;;10.68;83.13;99146.80;108555;1272;22496;-85
2023/03/13 11:32:49;;;;;;;13.30;1.40;;;;;;;10.70;83.12;99143.20;108652;1275;22557;-84
2023/03/13 11:35:40;;;;;;;10.30;1.20;;;;;;;10.74;83.03;99141.31;108497;1272;22579;-84
2023/03/13 11:38:19;;;;;;;14.30;2.00;;;;;;;10.79;82.93;99126.61;108489;1269;25433;-84
2023/03/13 11:41:03;;;;;;;22.70;2.10;;;;;;;10.84;82.66;99117.66;108400;1272;25993;-85
2023/03/13 11:43:51;;;;;;;14.60;1.20;;;;;;;10.91;82.80;99096.34;108425;1269;22490;-85
2023/03/13 11:46:36;;;;;;;14.10;1.50;;;;;;;11.00;82.69;99101.56;108359;1269;22528;-84
2023/03/13 11:49:25;;;;;;;15.60;1.50;;;;;;;11.06;82.42;99099.98;108369;1275;22584;-84
2023/03/13 11:52:10;;;;;;;7.70;1.00;;;;;;;11.10;82.25;99095.65;108465;1272;22539;-84
2023/03/13 11:55:10;;;;;;;8.60;1.00;;;;;;;11.14;82.11;99088.45;108394;1272;23168;-84
2023/03/13 11:57:52;;;;;;;13.30;1.20;;;;;;;11.18;81.64;99078.27;107881;1280;25541;-84